Time;durP1;ratioP1;P1;durP2;ratioP2;P2;SDS_P1;SDS_P2;PMS_P1;PMS_P2;Temp;Humidity;BMP_temperature;BMP_pressure;BME280_temperature;BME280_humidity;BME280_pressure;Samples;Min_cycle;Max_cycle;Signal;HPM_P1;HPM_P2
2022/11/30 00:00:52;;;;;;;;;;;0.20;99.90;;;;;;2603579;54;19935;31
2022/11/30 00:03:28;;;;;;;;;;;0.20;99.90;;;;;;2603558;54;19962;31
2022/11/30 00:06:05;;;;;;;;;;;0.20;99.90;;;;;;2621723;46;19957;31
2022/11/30 00:08:38;;;;;;;;;;;0.20;99.90;;;;;;2603530;54;20734;31
2022/11/30 00:11:13;;;;;;;;;;;0.20;99.90;;;;;;2701831;39;20394;31
2022/11/30 00:13:47;;;;;;;;;;;0.20;99.90;;;;;;2603760;54;20723;31
2022/11/30 00:16:21;;;;;;;;;;;0.20;99.90;;;;;;2621688;46;20470;31
2022/11/30 00:18:56;;;;;;;;;;;0.10;99.90;;;;;;2603231;54;20017;31
2022/11/30 00:21:31;;;;;;;;;;;0.10;99.90;;;;;;2603117;54;20816;31
2022/11/30 00:24:06;;;;;;;;;;;0.10;99.90;;;;;;2603376;54;19939;31
2022/11/30 00:26:40;;;;;;;;;;;0.10;99.90;;;;;;2603287;54;19942;31
2022/11/30 00:29:14;;;;;;;;;;;0.10;99.90;;;;;;2622137;46;19935;31
2022/11/30 00:31:47;;;;;;;;;;;0.10;99.90;;;;;;2622163;46;19958;31
2022/11/30 00:34:24;;;;;;;;;;;0.10;99.90;;;;;;2622086;46;19942;31
2022/11/30 00:36:58;;;;;;;;;;;0.00;99.90;;;;;;2603536;54;19961;31
2022/11/30 00:39:33;;;;;;;;;;;0.10;99.90;;;;;;2603600;54;20844;31
2022/11/30 00:42:08;;;;;;;;;;;0.10;99.90;;;;;;2621701;46;19941;31
2022/11/30 00:44:43;;;;;;;;;;;0.00;99.90;;;;;;2603436;54;19942;31
2022/11/30 00:47:17;;;;;;;;;;;0.10;99.90;;;;;;2603218;54;19942;31
2022/11/30 00:49:54;;;;;;;;;;;0.00;99.90;;;;;;2603352;54;20804;31
2022/11/30 00:52:28;;;;;;;;;;;0.00;99.90;;;;;;2603571;54;20504;31
2022/11/30 00:55:01;;;;;;;;;;;0.00;99.90;;;;;;2603487;54;20773;31
2022/11/30 00:57:36;;;;;;;;;;;-0.10;99.90;;;;;;2702011;39;20359;31
2022/11/30 01:00:11;;;;;;;;;;;0.00;99.90;;;;;;2603155;54;19935;31
2022/11/30 01:02:45;;;;;;;;;;;-0.10;99.90;;;;;;2621886;47;20522;31
2022/11/30 01:05:20;;;;;;;;;;;-0.10;99.90;;;;;;2621590;47;19980;31
2022/11/30 01:07:53;;;;;;;;;;;-0.10;99.90;;;;;;2621792;47;19942;31
2022/11/30 01:10:27;;;;;;;;;;;-0.10;99.90;;;;;;2701716;39;20274;31
2022/11/30 01:13:02;;;;;;;;;;;-0.10;99.90;;;;;;2603158;54;20763;31
2022/11/30 01:15:37;;;;;;;;;;;-0.10;99.90;;;;;;2622075;47;20709;31
2022/11/30 01:18:11;;;;;;;;;;;-0.20;99.90;;;;;;2702020;39;20370;31
2022/11/30 01:20:46;;;;;;;;;;;-0.20;99.90;;;;;;2603322;54;20732;31
2022/11/30 01:23:21;;;;;;;;;;;-0.20;99.90;;;;;;2621663;47;19946;31
2022/11/30 01:25:55;;;;;;;;;;;-0.20;99.90;;;;;;2603113;54;20745;31
2022/11/30 01:28:28;;;;;;;;;;;-0.20;99.90;;;;;;2621893;47;20450;31
2022/11/30 01:31:01;;;;;;;;;;;-0.30;99.90;;;;;;2603366;54;20697;31
2022/11/30 01:33:35;;;;;;;;;;;-0.30;99.90;;;;;;2774232;31;20529;31
2022/11/30 01:36:13;;;;;;;;;;;-0.30;99.90;;;;;;2603980;54;20569;31
2022/11/30 01:38:48;;;;;;;;;;;-0.30;99.90;;;;;;2604087;54;20794;31
2022/11/30 01:41:22;;;;;;;;;;;-0.30;99.90;;;;;;2604017;54;19942;31
2022/11/30 01:43:57;;;;;;;;;;;-0.30;99.90;;;;;;2604227;54;19934;31
2022/11/30 01:46:33;;;;;;;;;;;-0.30;99.90;;;;;;2603949;54;20706;31
2022/11/30 01:49:08;;;;;;;;;;;-0.30;99.90;;;;;;2622213;46;19982;31
2022/11/30 01:51:44;;;;;;;;;;;-0.30;99.90;;;;;;2603941;54;19989;31
2022/11/30 01:54:21;;;;;;;;;;;-0.30;99.90;;;;;;2603695;54;20041;31
2022/11/30 01:56:56;;;;;;;;;;;-0.30;99.90;;;;;;2604100;54;19957;31
2022/11/30 01:59:31;;;;;;;;;;;-0.30;99.90;;;;;;2604008;54;20758;31
2022/11/30 02:02:04;;;;;;;;;;;-0.30;99.90;;;;;;2622382;46;20014;31
2022/11/30 02:04:39;;;;;;;;;;;-0.40;99.90;;;;;;2603978;54;20807;31
2022/11/30 02:07:15;;;;;;;;;;;-0.30;99.90;;;;;;2604157;54;20726;31
2022/11/30 02:09:49;;;;;;;;;;;-0.30;99.90;;;;;;2720981;39;20461;31
2022/11/30 02:12:25;;;;;;;;;;;-0.40;99.90;;;;;;2604128;54;20775;31
2022/11/30 02:14:59;;;;;;;;;;;-0.40;99.90;;;;;;2622137;46;19935;31
2022/11/30 02:17:34;;;;;;;;;;;-0.40;99.90;;;;;;2603749;54;19934;31
2022/11/30 02:20:14;;;;;;;;;;;-0.40;99.90;;;;;;2603833;54;20742;31
2022/11/30 02:22:51;;;;;;;;;;;-0.40;99.90;;;;;;2603713;54;20695;31
2022/11/30 02:25:26;;;;;;;;;;;-0.30;99.90;;;;;;2622611;46;20794;31
2022/11/30 02:28:08;;;;;;;;;;;-0.40;99.90;;;;;;2603983;54;19935;31
2022/11/30 02:30:46;;;;;;;;;;;-0.30;99.90;;;;;;2604017;54;19935;31
2022/11/30 02:33:21;;;;;;;;;;;-0.40;99.90;;;;;;2603628;54;20845;31
2022/11/30 02:35:55;;;;;;;;;;;-0.40;99.90;;;;;;2603991;54;19934;31
2022/11/30 02:38:29;;;;;;;;;;;-0.40;99.90;;;;;;2622385;46;19934;31
2022/11/30 02:41:02;;;;;;;;;;;-0.40;99.90;;;;;;2603752;54;21350;31
2022/11/30 02:43:36;;;;;;;;;;;-0.40;99.90;;;;;;2603667;54;19960;31
2022/11/30 02:46:17;;;;;;;;;;;-0.50;99.90;;;;;;2603705;54;19994;31
2022/11/30 02:48:51;;;;;;;;;;;-0.50;99.90;;;;;;2622153;46;20009;31
2022/11/30 02:51:25;;;;;;;;;;;-0.50;99.90;;;;;;2604070;54;20745;31
2022/11/30 02:53:59;;;;;;;;;;;-0.60;99.90;;;;;;2622010;46;20025;31
2022/11/30 02:56:32;;;;;;;;;;;-0.50;99.90;;;;;;2603722;54;20768;31
2022/11/30 02:59:06;;;;;;;;;;;-0.50;99.90;;;;;;2603584;54;19941;31
2022/11/30 03:01:44;;;;;;;;;;;-0.50;99.90;;;;;;2622339;46;19935;31
2022/11/30 03:04:18;;;;;;;;;;;-0.50;99.90;;;;;;2603475;54;20786;31
2022/11/30 03:06:51;;;;;;;;;;;-0.60;99.90;;;;;;2603876;54;19934;31
2022/11/30 03:09:26;;;;;;;;;;;-0.60;99.90;;;;;;2603749;54;19989;31
2022/11/30 03:11:59;;;;;;;;;;;-0.60;99.90;;;;;;2603718;54;20794;31
2022/11/30 03:14:33;;;;;;;;;;;-0.70;99.90;;;;;;2603519;54;19935;31
2022/11/30 03:17:10;;;;;;;;;;;-0.70;99.90;;;;;;2603560;54;20783;31
2022/11/30 03:19:43;;;;;;;;;;;-0.80;99.90;;;;;;2622112;46;19942;31
2022/11/30 03:22:17;;;;;;;;;;;-0.80;99.90;;;;;;2603796;54;20049;31
2022/11/30 03:24:51;;;;;;;;;;;-0.80;99.90;;;;;;2603363;54;19941;31
2022/11/30 03:27:26;;;;;;;;;;;-0.80;99.90;;;;;;2603708;54;20749;31
2022/11/30 03:29:59;;;;;;;;;;;-0.80;99.90;;;;;;2702011;39;21501;31
2022/11/30 03:32:36;;;;;;;;;;;-0.80;99.90;;;;;;2603594;54;19935;31
2022/11/30 03:35:10;;;;;;;;;;;0.10;99.90;;;;;;2603595;54;20705;31
2022/11/30 03:37:44;;;;;;;;;;;-0.80;99.90;;;;;;2603704;54;20716;31
2022/11/30 03:40:17;;;;;;;;;;;-0.80;99.90;;;;;;2622165;46;19935;31
2022/11/30 03:42:52;;;;;;;;;;;-0.80;99.90;;;;;;2702405;39;20420;31
2022/11/30 03:45:25;;;;;;;;;;;-0.80;99.90;;;;;;2603686;54;19970;31
2022/11/30 03:48:02;;;;;;;;;;;-0.80;99.90;;;;;;2603665;54;19941;31
2022/11/30 03:50:35;;;;;;;;;;;-0.70;99.90;;;;;;2603451;54;19954;31
2022/11/30 03:53:09;;;;;;;;;;;-0.70;99.90;;;;;;2622184;46;19939;31
2022/11/30 03:55:42;;;;;;;;;;;-0.70;99.90;;;;;;2622202;46;19935;31
2022/11/30 03:58:15;;;;;;;;;;;-0.70;99.90;;;;;;2603656;54;19934;31
2022/11/30 04:00:48;;;;;;;;;;;-0.70;99.90;;;;;;2603784;54;19935;31
2022/11/30 04:03:24;;;;;;;;;;;-0.80;99.90;;;;;;2622159;46;19935;31
2022/11/30 04:05:57;;;;;;;;;;;-0.80;99.90;;;;;;2603406;54;19938;31
2022/11/30 04:08:31;;;;;;;;;;;-0.80;99.90;;;;;;2603364;54;19956;31
2022/11/30 04:11:05;;;;;;;;;;;-0.80;99.90;;;;;;2621982;46;19935;31
2022/11/30 04:13:40;;;;;;;;;;;-0.80;99.90;;;;;;2603568;54;19934;31
2022/11/30 04:16:13;;;;;;;;;;;-0.80;99.90;;;;;;2603246;54;20800;31
2022/11/30 04:18:50;;;;;;;;;;;-0.80;99.90;;;;;;2603203;54;19941;31
2022/11/30 04:21:25;;;;;;;;;;;-0.80;99.90;;;;;;2603475;54;20030;31
2022/11/30 04:23:58;;;;;;;;;;;-0.80;99.90;;;;;;2603572;54;19942;31
2022/11/30 04:26:33;;;;;;;;;;;-0.80;99.90;;;;;;2621854;46;19935;31
2022/11/30 04:29:06;;;;;;;;;;;-0.80;99.90;;;;;;2621920;46;19953;31
2022/11/30 04:31:40;;;;;;;;;;;-0.80;99.90;;;;;;2603369;54;20761;31
2022/11/30 04:34:17;;;;;;;;;;;-0.80;99.90;;;;;;2608575;46;20474;31
2022/11/30 04:36:51;;;;;;;;;;;-0.80;99.90;;;;;;2622026;46;20784;31
2022/11/30 04:39:34;;;;;;;;;;;-0.80;99.90;;;;;;2621931;46;19934;31
2022/11/30 04:42:08;;;;;;;;;;;-0.80;99.90;;;;;;2603331;54;20498;31
2022/11/30 04:44:42;;;;;;;;;;;-0.80;99.90;;;;;;2621482;46;19946;31
2022/11/30 04:47:16;;;;;;;;;;;-0.80;99.90;;;;;;2603202;54;19934;31
2022/11/30 04:49:52;;;;;;;;;;;-0.80;99.90;;;;;;2621675;46;19982;31
2022/11/30 04:52:27;;;;;;;;;;;-0.80;99.90;;;;;;2603279;54;20758;31
2022/11/30 04:55:03;;;;;;;;;;;-0.90;99.90;;;;;;2621655;46;19934;31
2022/11/30 04:57:36;;;;;;;;;;;-0.90;99.90;;;;;;2603488;54;19941;31
2022/11/30 05:00:12;;;;;;;;;;;-0.90;99.90;;;;;;2603623;54;19934;31
2022/11/30 05:02:46;;;;;;;;;;;-0.90;99.90;;;;;;2621905;47;19969;31
2022/11/30 05:05:28;;;;;;;;;;;-0.90;99.90;;;;;;2720405;39;20390;31
2022/11/30 05:08:03;;;;;;;;;;;-0.90;99.90;;;;;;2622958;46;20713;31
2022/11/30 05:10:37;;;;;;;;;;;-0.90;99.90;;;;;;2603934;54;19935;31
2022/11/30 05:13:10;;;;;;;;;;;-0.90;99.90;;;;;;2604032;54;20706;31
2022/11/30 05:15:45;;;;;;;;;;;-0.80;99.90;;;;;;2622300;46;19941;31
2022/11/30 05:18:18;;;;;;;;;;;-0.80;99.90;;;;;;2622495;46;20812;31
2022/11/30 05:20:54;;;;;;;;;;;-0.80;99.90;;;;;;2603878;54;19990;31
2022/11/30 05:23:26;;;;;;;;;;;-0.80;99.90;;;;;;2721188;39;20371;31
2022/11/30 05:26:03;;;;;;;;;;;-0.80;99.90;;;;;;2622550;46;19941;31
2022/11/30 05:28:37;;;;;;;;;;;-0.70;99.90;;;;;;2603935;54;19942;31
2022/11/30 05:31:11;;;;;;;;;;;-0.70;99.90;;;;;;2622666;46;19942;31
2022/11/30 05:33:45;;;;;;;;;;;-0.70;99.90;;;;;;2622315;46;19934;31
2022/11/30 05:36:22;;;;;;;;;;;-0.70;99.90;;;;;;2603880;54;20469;31
2022/11/30 05:38:57;;;;;;;;;;;0.40;99.90;;;;;;2622156;46;20001;31
2022/11/30 05:41:34;;;;;;;;;;;-0.70;99.90;;;;;;2720782;39;20469;31
2022/11/30 05:44:07;;;;;;;;;;;0.40;99.90;;;;;;2622666;46;19960;31
2022/11/30 05:46:42;;;;;;;;;;;-0.70;99.90;;;;;;2603881;54;20798;31
2022/11/30 05:49:18;;;;;;;;;;;-0.70;99.90;;;;;;2622317;46;19995;31
2022/11/30 05:51:54;;;;;;;;;;;-0.70;99.90;;;;;;2621756;46;19942;31
2022/11/30 05:54:28;;;;;;;;;;;-0.70;99.90;;;;;;2604039;54;20697;31
2022/11/30 05:57:02;;;;;;;;;;;-0.70;99.90;;;;;;2603970;54;19961;31
2022/11/30 05:59:36;;;;;;;;;;;-0.70;99.90;;;;;;2603991;54;19935;31
2022/11/30 06:02:11;;;;;;;;;;;-0.70;99.90;;;;;;2773664;31;20474;31
2022/11/30 06:04:47;;;;;;;;;;;-0.70;99.90;;;;;;2603979;54;20009;31
2022/11/30 06:07:24;;;;;;;;;;;-0.70;99.90;;;;;;2604000;54;20663;31
2022/11/30 06:10:00;;;;;;;;;;;-0.70;99.90;;;;;;2618377;46;19939;31
2022/11/30 06:12:34;;;;;;;;;;;-0.70;99.90;;;;;;2622458;46;20477;31
2022/11/30 06:15:10;;;;;;;;;;;-0.70;99.90;;;;;;2622289;46;19935;31
2022/11/30 06:17:47;;;;;;;;;;;-0.70;99.90;;;;;;2603700;54;20779;31
2022/11/30 06:20:22;;;;;;;;;;;-0.70;99.90;;;;;;2702481;39;20483;31
2022/11/30 06:23:00;;;;;;;;;;;-0.70;99.90;;;;;;2603675;54;19934;31
2022/11/30 06:25:34;;;;;;;;;;;-0.70;99.90;;;;;;2622156;46;19935;31
2022/11/30 06:28:10;;;;;;;;;;;-0.80;99.90;;;;;;2622526;46;20786;31
2022/11/30 06:30:44;;;;;;;;;;;-0.70;99.90;;;;;;2603827;54;19941;31
2022/11/30 06:33:21;;;;;;;;;;;-0.70;99.90;;;;;;2603774;54;20841;31
2022/11/30 06:35:56;;;;;;;;;;;-0.70;99.90;;;;;;2613988;46;21345;31
2022/11/30 06:38:34;;;;;;;;;;;-0.70;99.90;;;;;;2622268;46;19942;31
2022/11/30 06:41:09;;;;;;;;;;;-0.80;99.90;;;;;;2603890;54;19935;31
2022/11/30 06:43:42;;;;;;;;;;;-0.80;99.90;;;;;;2622520;46;20877;31
2022/11/30 06:46:17;;;;;;;;;;;-0.80;99.90;;;;;;2622484;46;19935;31
2022/11/30 06:48:52;;;;;;;;;;;-0.80;99.90;;;;;;2603635;54;20777;31
2022/11/30 06:51:26;;;;;;;;;;;-0.90;99.90;;;;;;2613411;46;20706;31
2022/11/30 06:54:03;;;;;;;;;;;-0.80;99.90;;;;;;2622169;46;20762;31
2022/11/30 06:56:35;;;;;;;;;;;-0.90;99.90;;;;;;2622255;46;19950;31
2022/11/30 06:59:10;;;;;;;;;;;-0.90;99.90;;;;;;2603599;54;19985;31
2022/11/30 07:01:44;;;;;;;;;;;-0.80;99.90;;;;;;2603875;54;20723;31
2022/11/30 07:04:18;;;;;;;;;;;-0.90;99.90;;;;;;2622330;46;19939;31
2022/11/30 07:06:52;;;;;;;;;;;-0.80;99.90;;;;;;2622363;46;20524;31
2022/11/30 07:09:31;;;;;;;;;;;-0.80;99.90;;;;;;2602921;54;19969;31
2022/11/30 07:12:05;;;;;;;;;;;-0.80;99.90;;;;;;2603704;54;20010;31
2022/11/30 07:14:38;;;;;;;;;;;-0.80;99.90;;;;;;2622019;46;21284;31
2022/11/30 07:17:12;;;;;;;;;;;-0.80;99.90;;;;;;2603545;54;20838;31
2022/11/30 07:19:46;;;;;;;;;;;-0.80;99.90;;;;;;2603692;54;19989;31
2022/11/30 07:22:22;;;;;;;;;;;-0.70;99.90;;;;;;2603769;54;19997;31
2022/11/30 07:27:44;;;;;;;;;;;-0.70;99.90;;;;;;2603540;54;21241;31
2022/11/30 07:30:17;;;;;;;;;;;-0.70;99.90;;;;;;2603751;54;19941;31
2022/11/30 07:32:54;;;;;;;;;;;-0.70;99.90;;;;;;2621767;46;19942;31
2022/11/30 07:35:31;;;;;;;;;;;-0.70;99.90;;;;;;2603526;54;20795;31
2022/11/30 07:38:05;;;;;;;;;;;-0.70;99.90;;;;;;2603525;54;20000;31
2022/11/30 07:40:44;;;;;;;;;;;-0.60;99.90;;;;;;2603650;54;19959;31
2022/11/30 07:43:17;;;;;;;;;;;-0.60;99.90;;;;;;2603370;54;20826;31
2022/11/30 07:45:56;;;;;;;;;;;-0.60;99.90;;;;;;2608802;46;20724;31
2022/11/30 07:48:30;;;;;;;;;;;-0.60;99.90;;;;;;2603554;54;19989;31
2022/11/30 07:51:05;;;;;;;;;;;-0.60;99.90;;;;;;2622147;46;20714;31
2022/11/30 07:53:43;;;;;;;;;;;-0.60;99.90;;;;;;2621935;46;20746;31
2022/11/30 07:56:20;;;;;;;;;;;-0.50;99.90;;;;;;2622219;46;20013;31
2022/11/30 07:58:56;;;;;;;;;;;-0.50;99.90;;;;;;2602608;54;20752;31
2022/11/30 08:01:31;;;;;;;;;;;-0.40;99.90;;;;;;2621741;46;20710;31
2022/11/30 08:04:05;;;;;;;;;;;-0.40;99.90;;;;;;2622005;46;19998;31
2022/11/30 08:06:41;;;;;;;;;;;-0.40;99.90;;;;;;2621927;46;19943;31
2022/11/30 08:09:14;;;;;;;;;;;-0.40;99.90;;;;;;2603774;54;19935;31
2022/11/30 08:11:56;;;;;;;;;;;-0.30;99.90;;;;;;2720179;39;20478;31
2022/11/30 08:14:30;;;;;;;;;;;-0.30;99.90;;;;;;2603357;54;19934;31
2022/11/30 08:17:23;;;;;;;;;;;-0.30;99.90;;;;;;2621837;46;20798;31
2022/11/30 08:19:58;;;;;;;;;;;-0.30;99.90;;;;;;2603344;54;19935;31
2022/11/30 08:22:32;;;;;;;;;;;-0.30;99.90;;;;;;2619619;46;20770;31
2022/11/30 08:25:07;;;;;;;;;;;-0.30;99.90;;;;;;2603501;54;19946;31
2022/11/30 08:27:43;;;;;;;;;;;-0.30;99.90;;;;;;2621779;46;19989;31
2022/11/30 08:30:17;;;;;;;;;;;-0.30;99.90;;;;;;2603272;54;19935;31
2022/11/30 08:32:51;;;;;;;;;;;-0.30;99.90;;;;;;2602667;54;19947;31
2022/11/30 08:35:26;;;;;;;;;;;-0.40;99.90;;;;;;2603295;54;20859;31
2022/11/30 08:38:00;;;;;;;;;;;-0.30;99.90;;;;;;2603314;54;20498;31
2022/11/30 08:40:35;;;;;;;;;;;-0.30;99.90;;;;;;2615211;46;19965;31
2022/11/30 08:43:12;;;;;;;;;;;-0.30;99.90;;;;;;2602702;54;19938;31
2022/11/30 08:45:46;;;;;;;;;;;-0.30;99.90;;;;;;2603592;54;20710;31
2022/11/30 08:48:27;;;;;;;;;;;-0.30;99.90;;;;;;2603119;54;19934;31
2022/11/30 08:51:02;;;;;;;;;;;-0.30;99.90;;;;;;2621983;46;19941;31
2022/11/30 08:53:36;;;;;;;;;;;-0.30;99.90;;;;;;2603305;54;19942;31
2022/11/30 08:56:12;;;;;;;;;;;-0.40;99.90;;;;;;2701673;39;20453;31
2022/11/30 08:58:50;;;;;;;;;;;-0.30;99.90;;;;;;2602388;54;19942;31
2022/11/30 09:01:24;;;;;;;;;;;-0.30;99.90;;;;;;2621869;46;19993;31
2022/11/30 09:04:04;;;;;;;;;;;-0.30;99.90;;;;;;2603065;54;19961;31
2022/11/30 09:06:38;;;;;;;;;;;-0.30;99.90;;;;;;2603209;54;19942;31
2022/11/30 09:09:12;;;;;;;;;;;-0.20;99.90;;;;;;2603290;54;20683;31
2022/11/30 09:11:45;;;;;;;;;;;-0.20;99.90;;;;;;2603108;54;20737;31
2022/11/30 09:14:21;;;;;;;;;;;-0.20;99.90;;;;;;2603145;54;19946;31
2022/11/30 09:16:56;;;;;;;;;;;-0.20;99.90;;;;;;2701566;39;20417;31
2022/11/30 09:19:31;;;;;;;;;;;-0.20;99.90;;;;;;2603006;47;20830;31
2022/11/30 09:22:04;;;;;;;;;;;-0.20;99.90;;;;;;2604395;47;19942;31
2022/11/30 09:24:38;;;;;;;;;;;-0.20;99.90;;;;;;2603020;54;19990;31
2022/11/30 09:27:12;;;;;;;;;;;-0.20;99.90;;;;;;2617557;47;20786;31
2022/11/30 09:29:49;;;;;;;;;;;-0.20;99.90;;;;;;2603288;54;19935;31
2022/11/30 09:32:24;;;;;;;;;;;-0.20;99.90;;;;;;2602810;54;20789;31
2022/11/30 09:34:59;;;;;;;;;;;-0.10;99.90;;;;;;2603269;54;20735;31
2022/11/30 09:37:34;;;;;;;;;;;-0.10;99.90;;;;;;2617427;47;20476;31
2022/11/30 09:40:10;;;;;;;;;;;-0.10;99.90;;;;;;2621615;47;20746;31
2022/11/30 09:42:45;;;;;;;;;;;-0.10;99.90;;;;;;2603262;54;20775;31
2022/11/30 09:45:26;;;;;;;;;;;0.00;99.90;;;;;;2617466;47;19935;31
2022/11/30 09:48:12;;;;;;;;;;;0.00;99.90;;;;;;2617398;47;19986;31
2022/11/30 09:50:48;;;;;;;;;;;0.00;99.90;;;;;;2621617;47;19945;31
2022/11/30 09:53:26;;;;;;;;;;;0.00;99.90;;;;;;2603483;54;20784;31
2022/11/30 09:56:02;;;;;;;;;;;0.00;99.90;;;;;;2604274;54;19935;31
2022/11/30 09:58:38;;;;;;;;;;;0.00;99.90;;;;;;2703631;39;20370;31
2022/11/30 10:01:19;;;;;;;;;;;0.00;99.90;;;;;;2618058;46;20770;31
2022/11/30 10:03:53;;;;;;;;;;;0.10;99.90;;;;;;2702307;39;20308;31
2022/11/30 10:06:28;;;;;;;;;;;0.10;99.90;;;;;;2603710;54;20855;31
2022/11/30 10:09:06;;;;;;;;;;;0.10;99.90;;;;;;2622582;46;19934;31
2022/11/30 10:11:47;;;;;;;;;;;0.10;99.90;;;;;;2603783;54;19985;31
2022/11/30 10:14:27;;;;;;;;;;;0.10;99.90;;;;;;2603726;54;19934;31
2022/11/30 10:17:06;;;;;;;;;;;0.10;99.90;;;;;;2603923;54;20770;31
2022/11/30 10:19:45;;;;;;;;;;;0.10;99.90;;;;;;2613889;46;20726;31
2022/11/30 10:22:21;;;;;;;;;;;0.10;99.90;;;;;;2602881;54;20839;31
2022/11/30 10:24:59;;;;;;;;;;;0.20;99.90;;;;;;2603956;54;19941;31
2022/11/30 10:27:38;;;;;;;;;;;0.20;99.90;;;;;;2622220;46;19942;31
2022/11/30 10:30:16;;;;;;;;;;;0.10;99.90;;;;;;2602898;54;19942;31
2022/11/30 10:32:54;;;;;;;;;;;0.20;99.90;;;;;;2630747;39;21475;31
2022/11/30 10:35:35;;;;;;;;;;;0.20;99.90;;;;;;2603688;54;20786;31
2022/11/30 10:38:13;;;;;;;;;;;0.20;99.90;;;;;;2622100;46;19934;31
2022/11/30 10:40:47;;;;;;;;;;;0.20;99.90;;;;;;2622184;46;19947;31
2022/11/30 10:43:21;;;;;;;;;;;0.20;99.90;;;;;;2702186;39;20310;31
2022/11/30 10:45:54;;;;;;;;;;;0.20;99.90;;;;;;2603946;54;19935;31
2022/11/30 10:48:34;;;;;;;;;;;0.20;99.90;;;;;;2603925;54;19934;31
2022/11/30 10:51:09;;;;;;;;;;;0.20;99.90;;;;;;2603816;54;19994;31
2022/11/30 10:53:43;;;;;;;;;;;0.20;99.90;;;;;;2603689;54;20830;31
2022/11/30 10:56:17;;;;;;;;;;;0.20;99.90;;;;;;2603613;54;20013;31
2022/11/30 10:58:55;;;;;;;;;;;0.20;99.90;;;;;;2603783;54;19993;31
2022/11/30 11:01:34;;;;;;;;;;;0.20;99.90;;;;;;2622187;46;19934;31
2022/11/30 11:04:12;;;;;;;;;;;0.20;99.90;;;;;;2622135;46;19942;31
2022/11/30 11:06:46;;;;;;;;;;;0.20;99.90;;;;;;2603896;54;19935;31
2022/11/30 11:09:33;;;;;;;;;;;0.20;99.90;;;;;;2603428;54;20772;31
2022/11/30 11:12:07;;;;;;;;;;;0.20;99.90;;;;;;2603881;54;20776;31
2022/11/30 11:14:42;;;;;;;;;;;0.20;99.90;;;;;;2621899;46;19941;31
2022/11/30 11:17:27;;;;;;;;;;;0.30;99.90;;;;;;2603633;54;19934;31
2022/11/30 11:20:04;;;;;;;;;;;0.30;99.90;;;;;;2603514;54;20807;31
2022/11/30 11:22:38;;;;;;;;;;;0.30;99.90;;;;;;2603626;54;19961;31
2022/11/30 11:25:11;;;;;;;;;;;0.20;99.90;;;;;;2603702;54;20793;31
2022/11/30 11:27:46;;;;;;;;;;;0.20;99.90;;;;;;2622053;46;19934;31
2022/11/30 11:30:30;;;;;;;;;;;0.20;99.90;;;;;;2603477;54;20067;31
2022/11/30 11:33:03;;;;;;;;;;;0.20;99.90;;;;;;2603580;54;20829;31
2022/11/30 11:35:42;;;;;;;;;;;0.10;99.90;;;;;;2603595;54;19934;31
2022/11/30 11:38:20;;;;;;;;;;;0.10;99.90;;;;;;2603625;54;20001;31
2022/11/30 11:40:55;;;;;;;;;;;0.10;99.90;;;;;;2713152;39;20529;31
2022/11/30 11:43:29;;;;;;;;;;;0.00;99.90;;;;;;2603491;54;19942;31
2022/11/30 11:46:04;;;;;;;;;;;0.00;99.90;;;;;;2603631;54;20789;31
2022/11/30 11:48:40;;;;;;;;;;;0.00;99.90;;;;;;2622012;46;19935;31
2022/11/30 11:51:17;;;;;;;;;;;0.00;99.90;;;;;;2622088;46;19946;31
2022/11/30 11:53:52;;;;;;;;;;;0.00;99.90;;;;;;2603807;54;19941;31
2022/11/30 11:56:27;;;;;;;;;;;0.00;99.90;;;;;;2618774;46;19948;31
2022/11/30 11:59:03;;;;;;;;;;;0.10;99.90;;;;;;2622079;46;19947;31
2022/11/30 12:01:44;;;;;;;;;;;0.10;99.90;;;;;;2622142;46;19934;31
2022/11/30 12:04:23;;;;;;;;;;;0.10;99.90;;;;;;2603615;54;19942;31
2022/11/30 12:07:01;;;;;;;;;;;0.10;99.90;;;;;;2621995;46;19934;31
2022/11/30 12:09:36;;;;;;;;;;;0.10;99.90;;;;;;2622199;46;19941;31
2022/11/30 12:12:12;;;;;;;;;;;0.10;99.90;;;;;;2621689;46;20021;31
2022/11/30 12:14:46;;;;;;;;;;;0.20;99.90;;;;;;2603416;54;21311;31
2022/11/30 12:17:26;;;;;;;;;;;0.20;99.90;;;;;;2603555;54;20717;31
2022/11/30 12:20:04;;;;;;;;;;;0.20;99.90;;;;;;2603555;54;20493;31
2022/11/30 12:22:46;;;;;;;;;;;0.30;99.90;;;;;;2603611;54;21324;31
2022/11/30 12:25:23;;;;;;;;;;;0.30;99.90;;;;;;2603567;54;21258;31
2022/11/30 12:28:00;;;;;;;;;;;0.30;99.90;;;;;;2603627;54;20697;31
2022/11/30 12:30:35;;;;;;;;;;;0.40;99.90;;;;;;2720769;39;21363;31
2022/11/30 12:33:10;;;;;;;;;;;0.30;99.90;;;;;;2603383;54;19942;31
2022/11/30 12:35:52;;;;;;;;;;;0.30;99.90;;;;;;2603284;54;19942;31
2022/11/30 12:38:33;;;;;;;;;;;0.30;99.90;;;;;;2603266;54;20762;31
2022/11/30 12:41:09;;;;;;;;;;;0.40;99.90;;;;;;2603261;54;19942;31
2022/11/30 12:43:45;;;;;;;;;;;0.40;99.90;;;;;;2603311;54;20071;31
2022/11/30 12:46:21;;;;;;;;;;;0.40;99.90;;;;;;2603575;54;20784;31
2022/11/30 12:49:04;;;;;;;;;;;0.40;99.90;;;;;;2621967;46;19942;31
2022/11/30 12:51:38;;;;;;;;;;;0.40;99.90;;;;;;2603628;54;19934;31
2022/11/30 12:54:17;;;;;;;;;;;0.40;99.90;;;;;;2621995;46;19942;31
2022/11/30 12:56:53;;;;;;;;;;;0.30;99.90;;;;;;2621856;46;20797;31
2022/11/30 12:59:28;;;;;;;;;;;0.30;99.90;;;;;;2720500;39;20405;31
2022/11/30 13:02:07;;;;;;;;;;;0.30;99.90;;;;;;2702138;39;20386;31
2022/11/30 13:04:43;;;;;;;;;;;0.30;99.90;;;;;;2603210;54;19941;31
2022/11/30 13:07:21;;;;;;;;;;;0.30;99.90;;;;;;2621840;47;19935;31
2022/11/30 13:10:00;;;;;;;;;;;0.30;99.90;;;;;;2603100;54;19957;31
2022/11/30 13:12:37;;;;;;;;;;;0.30;99.90;;;;;;2603398;54;20740;31
2022/11/30 13:15:15;;;;;;;;;;;0.20;99.90;;;;;;2603113;54;20042;31
2022/11/30 13:17:49;;;;;;;;;;;0.30;99.90;;;;;;2603518;54;20741;31
2022/11/30 13:20:25;;;;;;;;;;;0.30;99.90;;;;;;2603059;54;19935;31
2022/11/30 13:23:01;;;;;;;;;;;0.20;99.90;;;;;;2621593;47;20005;31
2022/11/30 13:25:38;;;;;;;;;;;0.20;99.90;;;;;;2603106;54;19934;31
2022/11/30 13:28:38;;;;;;;;;;;0.20;99.90;;;;;;2603805;54;20016;31
2022/11/30 13:31:16;;;;;;;;;;;0.20;99.90;;;;;;2604118;54;20779;31
2022/11/30 13:33:51;;;;;;;;;;;0.20;99.90;;;;;;2603866;54;20794;31
2022/11/30 13:36:33;;;;;;;;;;;0.20;99.90;;;;;;2604059;54;19942;31
2022/11/30 13:39:11;;;;;;;;;;;0.20;99.90;;;;;;2792737;31;21357;31
2022/11/30 13:41:50;;;;;;;;;;;0.20;99.90;;;;;;2603858;54;20757;31
2022/11/30 13:44:28;;;;;;;;;;;0.20;99.90;;;;;;2622190;46;19941;31
2022/11/30 13:47:03;;;;;;;;;;;0.20;99.90;;;;;;2604209;54;20701;31
2022/11/30 13:49:40;;;;;;;;;;;0.20;99.90;;;;;;2604284;54;19934;31
2022/11/30 13:52:15;;;;;;;;;;;0.20;99.90;;;;;;2622445;46;20796;31
2022/11/30 13:54:58;;;;;;;;;;;0.10;99.90;;;;;;2604132;54;20721;31
2022/11/30 13:57:48;;;;;;;;;;;0.10;99.90;;;;;;2603866;54;20705;31
2022/11/30 14:00:39;;;;;;;;;;;0.20;99.90;;;;;;2702341;39;21293;31
2022/11/30 14:03:28;;;;;;;;;;;0.10;99.90;;;;;;2603849;54;19985;31
2022/11/30 14:06:03;;;;;;;;;;;0.20;99.90;;;;;;2604166;54;20792;31
2022/11/30 14:08:37;;;;;;;;;;;0.20;99.90;;;;;;2603933;54;19935;31
2022/11/30 14:11:25;;;;;;;;;;;0.20;99.90;;;;;;2622564;46;19935;31
2022/11/30 14:13:59;;;;;;;;;;;0.20;99.90;;;;;;2603701;54;20738;31
2022/11/30 14:16:36;;;;;;;;;;;0.20;99.90;;;;;;2622390;46;19983;31
2022/11/30 14:19:15;;;;;;;;;;;0.30;99.90;;;;;;2622449;46;20831;31
2022/11/30 14:21:48;;;;;;;;;;;0.20;99.90;;;;;;2603964;54;19941;31
2022/11/30 14:24:23;;;;;;;;;;;0.20;99.90;;;;;;2603781;54;20761;31
2022/11/30 14:26:57;;;;;;;;;;;0.20;99.90;;;;;;2603744;54;20818;31
2022/11/30 14:29:31;;;;;;;;;;;0.20;99.90;;;;;;2603524;54;19935;31
2022/11/30 14:32:10;;;;;;;;;;;0.20;99.90;;;;;;2604030;54;19935;31
2022/11/30 14:34:47;;;;;;;;;;;0.10;99.90;;;;;;2622359;46;20809;31
2022/11/30 14:37:23;;;;;;;;;;;0.10;99.90;;;;;;2603929;54;19943;31
2022/11/30 14:39:57;;;;;;;;;;;0.10;99.90;;;;;;2603575;54;19954;31
2022/11/30 14:42:32;;;;;;;;;;;0.10;99.90;;;;;;2622301;46;19941;31
2022/11/30 14:45:07;;;;;;;;;;;0.10;99.90;;;;;;2622220;46;19942;31
2022/11/30 14:47:41;;;;;;;;;;;0.10;99.90;;;;;;2603535;54;20701;31
2022/11/30 14:50:27;;;;;;;;;;;0.20;99.90;;;;;;2603819;54;20912;31
2022/11/30 14:53:05;;;;;;;;;;;0.20;99.90;;;;;;2603865;54;19985;31
2022/11/30 14:55:40;;;;;;;;;;;0.20;99.90;;;;;;2603477;54;20770;31
2022/11/30 14:58:17;;;;;;;;;;;0.20;99.90;;;;;;2603352;54;20315;31
2022/11/30 15:00:52;;;;;;;;;;;0.30;99.90;;;;;;2603454;54;20817;31
2022/11/30 15:03:27;;;;;;;;;;;0.30;99.90;;;;;;2622209;46;20778;31
2022/11/30 15:06:03;;;;;;;;;;;0.30;99.90;;;;;;2603420;54;20660;31
2022/11/30 15:08:40;;;;;;;;;;;0.30;99.90;;;;;;2622155;46;20009;31
2022/11/30 15:11:16;;;;;;;;;;;0.30;99.90;;;;;;2603758;54;19945;31
2022/11/30 15:13:51;;;;;;;;;;;0.30;99.90;;;;;;2603785;54;19935;31
2022/11/30 15:16:29;;;;;;;;;;;0.30;99.90;;;;;;2622020;46;19935;31
2022/11/30 15:19:18;;;;;;;;;;;0.40;99.90;;;;;;2603521;54;20838;31
2022/11/30 15:21:56;;;;;;;;;;;0.30;99.90;;;;;;2603597;54;19982;31
2022/11/30 15:24:29;;;;;;;;;;;0.30;99.90;;;;;;2603838;54;19993;31
2022/11/30 15:27:04;;;;;;;;;;;0.30;99.90;;;;;;2621873;46;20820;31
2022/11/30 15:29:45;;;;;;;;;;;0.30;99.90;;;;;;2603735;54;20795;31